Meath Environmental Platform

Observations for Trim Patrick St

Time AQI Temp °C Hum % Pres Pa CO μg/m³ H₂S μg/m³ NO μg/m³ NO₂ μg/m³ O₃ μg/m³ SO₂ μg/m³ PM1 μg/m³ PM2.5 μg/m³ PM10 μg/m³
Friday 31 July 2026
03:24 2 11.3 76 38,460 0.5 3.76 4.22 21.22 36.21 0 10.57 16.11 17.72
03:23 2 11.3 76 38,460 0.5 4.25 4.22 18.58 43.14 0 12.29 18.19 20.01
03:22 2 11.3 77 38,460 0.48 1.98 4.19 18.68 31.85 0 12.29 17.44 19.18
03:21 2 11.4 76 38,460 0.46 2.68 4.17 14 27.81 0 13.14 18.22 20.05
03:20 2 11.4 77 38,460 0.48 4.04 4.17 16.87 36.7 0 11.43 18.86 20.95
03:19 2 11.4 76 38,460 0.47 4.46 4.2 21.23 46.29 0 13.14 21.03 23.14
03:18 2 11.4 74 38,460 0.47 4.35 4.19 21.56 41.5 0 13.14 20.52 22.58
03:17 2 11.4 76 38,460 0.48 3.37 4.18 16.22 31.42 0 13.14 20.41 22.46
03:16 2 11.4 75 38,460 0.48 4.15 4.14 23.76 46.48 0 13.14 21.88 24.07
03:15 2 11.4 74 38,460 0.47 4.07 4.1 23.13 38.07 0 13.14 21.98 23.66
03:12 2 11.4 76 38,460 0.49 3.76 4.13 17.18 37.74 0 13.14 22.49 24.73
03:11 2 11.4 76 38,460 0.47 4.2 4.19 22.56 46 0 11.43 18.29 20.11
03:09 2 11.5 74 38,460 0.47 4.41 4.16 19.61 33.15 0 12.29 22.69 24.96
03:08 2 11.5 76 38,460 0.48 4 4.16 19.98 41.76 0 14.86 23.91 26.31
03:07 2 11.5 76 38,460 0.47 3.17 4.17 16.26 33.45 0 13.14 22.47 24.72
03:05 2 11.5 75 38,460 0.47 4.23 4.16 18.96 36.02 0 11.43 17.61 19.37
03:04 2 11.5 75 38,460 0.47 4.13 4.13 20.18 36.68 0 14.86 21.87 24.05
03:03 2 11.5 75 38,460 0.48 2.45 4.09 16.05 35.24 0 13.14 21.18 23.3
03:02 2 11.5 75 38,460 0.47 4.49 4.08 19.21 40.73 0 15.71 24.01 24.19
03:01 2 11.5 76 38,460 0.48 3.63 4.07 18.04 37.18 0 14 23.94 26.33